sensor_id;sensor_type;location;lat;lon;timestamp;P1;durP1;ratioP1;P2;durP2;ratioP2
5199;SDS011;2619;47.868;11.892;2023-12-07T00:01:20;17.73;;;11.00;;
5199;SDS011;2619;47.868;11.892;2023-12-07T00:03:46;18.03;;;12.17;;
5199;SDS011;2619;47.868;11.892;2023-12-07T00:06:12;28.53;;;12.20;;
5199;SDS011;2619;47.868;11.892;2023-12-07T00:08:38;18.07;;;11.17;;
5199;SDS011;2619;47.868;11.892;2023-12-07T00:11:04;15.43;;;10.57;;
5199;SDS011;2619;47.868;11.892;2023-12-07T00:13:31;17.37;;;10.87;;
5199;SDS011;2619;47.868;11.892;2023-12-07T00:15:57;13.50;;;10.83;;
5199;SDS011;2619;47.868;11.892;2023-12-07T00:18:23;14.07;;;10.27;;
5199;SDS011;2619;47.868;11.892;2023-12-07T00:20:49;13.47;;;10.00;;
5199;SDS011;2619;47.868;11.892;2023-12-07T00:23:15;14.80;;;9.80;;
5199;SDS011;2619;47.868;11.892;2023-12-07T00:25:41;16.50;;;11.30;;
5199;SDS011;2619;47.868;11.892;2023-12-07T00:28:07;15.70;;;10.03;;
5199;SDS011;2619;47.868;11.892;2023-12-07T00:30:33;14.70;;;9.87;;
5199;SDS011;2619;47.868;11.892;2023-12-07T00:33:00;17.20;;;11.33;;
5199;SDS011;2619;47.868;11.892;2023-12-07T00:35:26;13.37;;;9.07;;
5199;SDS011;2619;47.868;11.892;2023-12-07T00:37:54;15.33;;;10.50;;
5199;SDS011;2619;47.868;11.892;2023-12-07T00:40:20;14.57;;;9.63;;
5199;SDS011;2619;47.868;11.892;2023-12-07T00:42:47;14.47;;;10.23;;
5199;SDS011;2619;47.868;11.892;2023-12-07T00:45:13;15.80;;;10.53;;
5199;SDS011;2619;47.868;11.892;2023-12-07T00:47:39;17.13;;;11.03;;
5199;SDS011;2619;47.868;11.892;2023-12-07T00:50:06;18.07;;;10.93;;
5199;SDS011;2619;47.868;11.892;2023-12-07T00:52:32;16.20;;;10.40;;
5199;SDS011;2619;47.868;11.892;2023-12-07T00:54:58;17.10;;;10.57;;
5199;SDS011;2619;47.868;11.892;2023-12-07T00:57:24;16.17;;;10.37;;
5199;SDS011;2619;47.868;11.892;2023-12-07T00:59:51;18.97;;;12.10;;
5199;SDS011;2619;47.868;11.892;2023-12-07T01:02:17;17.40;;;11.37;;
5199;SDS011;2619;47.868;11.892;2023-12-07T01:04:43;19.47;;;11.50;;
5199;SDS011;2619;47.868;11.892;2023-12-07T01:07:09;20.17;;;12.23;;
5199;SDS011;2619;47.868;11.892;2023-12-07T01:09:35;18.90;;;12.63;;
5199;SDS011;2619;47.868;11.892;2023-12-07T01:12:01;15.47;;;10.10;;
5199;SDS011;2619;47.868;11.892;2023-12-07T01:14:28;17.30;;;11.67;;
5199;SDS011;2619;47.868;11.892;2023-12-07T01:16:54;16.00;;;10.47;;
5199;SDS011;2619;47.868;11.892;2023-12-07T01:19:20;17.50;;;12.00;;
5199;SDS011;2619;47.868;11.892;2023-12-07T01:21:46;19.87;;;12.63;;
5199;SDS011;2619;47.868;11.892;2023-12-07T01:24:12;19.50;;;12.40;;
5199;SDS011;2619;47.868;11.892;2023-12-07T01:26:38;20.60;;;12.07;;
5199;SDS011;2619;47.868;11.892;2023-12-07T01:29:04;18.93;;;12.40;;
5199;SDS011;2619;47.868;11.892;2023-12-07T01:31:30;19.70;;;11.90;;
5199;SDS011;2619;47.868;11.892;2023-12-07T01:33:56;20.33;;;12.23;;
5199;SDS011;2619;47.868;11.892;2023-12-07T01:36:22;21.07;;;13.07;;
5199;SDS011;2619;47.868;11.892;2023-12-07T01:38:48;21.63;;;12.83;;
5199;SDS011;2619;47.868;11.892;2023-12-07T01:41:14;21.10;;;13.13;;
5199;SDS011;2619;47.868;11.892;2023-12-07T01:43:46;25.10;;;15.30;;
5199;SDS011;2619;47.868;11.892;2023-12-07T01:46:12;22.37;;;13.60;;
5199;SDS011;2619;47.868;11.892;2023-12-07T01:48:39;23.30;;;14.60;;
5199;SDS011;2619;47.868;11.892;2023-12-07T01:51:05;24.37;;;13.73;;
5199;SDS011;2619;47.868;11.892;2023-12-07T01:53:31;22.43;;;13.10;;
5199;SDS011;2619;47.868;11.892;2023-12-07T01:55:57;25.97;;;14.57;;
5199;SDS011;2619;47.868;11.892;2023-12-07T01:58:23;22.63;;;14.00;;
5199;SDS011;2619;47.868;11.892;2023-12-07T02:00:49;23.10;;;14.80;;
5199;SDS011;2619;47.868;11.892;2023-12-07T02:03:15;23.60;;;15.10;;
5199;SDS011;2619;47.868;11.892;2023-12-07T02:05:42;25.97;;;14.70;;
5199;SDS011;2619;47.868;11.892;2023-12-07T02:08:09;25.20;;;15.07;;
5199;SDS011;2619;47.868;11.892;2023-12-07T02:10:35;24.83;;;15.80;;
5199;SDS011;2619;47.868;11.892;2023-12-07T02:13:01;28.87;;;16.50;;
5199;SDS011;2619;47.868;11.892;2023-12-07T02:15:28;30.87;;;16.40;;
5199;SDS011;2619;47.868;11.892;2023-12-07T02:18:10;23.30;;;15.07;;
5199;SDS011;2619;47.868;11.892;2023-12-07T02:20:44;25.97;;;15.37;;
5199;SDS011;2619;47.868;11.892;2023-12-07T02:23:13;28.93;;;18.23;;
5199;SDS011;2619;47.868;11.892;2023-12-07T02:28:09;26.03;;;15.37;;
5199;SDS011;2619;47.868;11.892;2023-12-07T02:30:35;28.80;;;17.13;;
5199;SDS011;2619;47.868;11.892;2023-12-07T02:33:01;29.10;;;16.70;;
5199;SDS011;2619;47.868;11.892;2023-12-07T02:35:27;26.40;;;17.00;;
5199;SDS011;2619;47.868;11.892;2023-12-07T02:37:53;27.00;;;17.00;;
5199;SDS011;2619;47.868;11.892;2023-12-07T02:40:21;25.50;;;16.17;;
5199;SDS011;2619;47.868;11.892;2023-12-07T02:42:47;27.30;;;17.23;;
5199;SDS011;2619;47.868;11.892;2023-12-07T02:45:14;27.87;;;17.43;;
5199;SDS011;2619;47.868;11.892;2023-12-07T02:47:40;31.47;;;18.10;;
5199;SDS011;2619;47.868;11.892;2023-12-07T02:50:08;27.10;;;16.43;;
5199;SDS011;2619;47.868;11.892;2023-12-07T02:52:34;26.93;;;17.07;;
5199;SDS011;2619;47.868;11.892;2023-12-07T02:55:00;27.77;;;16.50;;
5199;SDS011;2619;47.868;11.892;2023-12-07T02:57:27;29.00;;;16.87;;
5199;SDS011;2619;47.868;11.892;2023-12-07T02:59:54;27.33;;;16.30;;
5199;SDS011;2619;47.868;11.892;2023-12-07T03:02:20;25.60;;;15.37;;
5199;SDS011;2619;47.868;11.892;2023-12-07T03:04:46;27.60;;;17.10;;
5199;SDS011;2619;47.868;11.892;2023-12-07T03:07:12;28.93;;;16.10;;
5199;SDS011;2619;47.868;11.892;2023-12-07T03:09:38;24.93;;;14.90;;
5199;SDS011;2619;47.868;11.892;2023-12-07T03:12:04;27.10;;;16.17;;
5199;SDS011;2619;47.868;11.892;2023-12-07T03:14:30;27.63;;;16.83;;
5199;SDS011;2619;47.868;11.892;2023-12-07T03:16:56;26.73;;;18.20;;
5199;SDS011;2619;47.868;11.892;2023-12-07T03:19:22;30.20;;;18.13;;
5199;SDS011;2619;47.868;11.892;2023-12-07T03:21:48;24.87;;;16.43;;
5199;SDS011;2619;47.868;11.892;2023-12-07T03:24:14;26.20;;;17.07;;
5199;SDS011;2619;47.868;11.892;2023-12-07T03:26:40;28.97;;;17.43;;
5199;SDS011;2619;47.868;11.892;2023-12-07T03:29:06;27.80;;;17.27;;
5199;SDS011;2619;47.868;11.892;2023-12-07T03:31:32;32.70;;;19.10;;
5199;SDS011;2619;47.868;11.892;2023-12-07T03:33:58;30.37;;;18.53;;
5199;SDS011;2619;47.868;11.892;2023-12-07T03:36:26;31.30;;;17.47;;
5199;SDS011;2619;47.868;11.892;2023-12-07T03:38:52;25.30;;;16.20;;
5199;SDS011;2619;47.868;11.892;2023-12-07T03:41:18;28.97;;;17.33;;
5199;SDS011;2619;47.868;11.892;2023-12-07T03:43:44;30.80;;;17.10;;
5199;SDS011;2619;47.868;11.892;2023-12-07T03:46:10;30.13;;;16.50;;
5199;SDS011;2619;47.868;11.892;2023-12-07T03:48:36;29.20;;;17.97;;
5199;SDS011;2619;47.868;11.892;2023-12-07T03:51:02;27.93;;;16.90;;
5199;SDS011;2619;47.868;11.892;2023-12-07T03:53:28;27.07;;;17.00;;
5199;SDS011;2619;47.868;11.892;2023-12-07T03:55:55;24.60;;;16.10;;
5199;SDS011;2619;47.868;11.892;2023-12-07T03:58:21;25.70;;;15.63;;
5199;SDS011;2619;47.868;11.892;2023-12-07T04:00:47;26.70;;;16.33;;
5199;SDS011;2619;47.868;11.892;2023-12-07T04:03:13;24.60;;;15.30;;
5199;SDS011;2619;47.868;11.892;2023-12-07T04:05:39;28.13;;;17.17;;
5199;SDS011;2619;47.868;11.892;2023-12-07T04:08:05;29.90;;;16.70;;
5199;SDS011;2619;47.868;11.892;2023-12-07T04:10:31;27.33;;;15.50;;
5199;SDS011;2619;47.868;11.892;2023-12-07T04:12:57;26.63;;;15.83;;
5199;SDS011;2619;47.868;11.892;2023-12-07T04:15:23;21.60;;;14.03;;
5199;SDS011;2619;47.868;11.892;2023-12-07T04:17:50;23.83;;;14.23;;
5199;SDS011;2619;47.868;11.892;2023-12-07T04:20:16;23.43;;;15.03;;
5199;SDS011;2619;47.868;11.892;2023-12-07T04:22:42;21.60;;;14.30;;
5199;SDS011;2619;47.868;11.892;2023-12-07T04:25:09;22.53;;;12.60;;
5199;SDS011;2619;47.868;11.892;2023-12-07T04:27:35;22.30;;;13.80;;
5199;SDS011;2619;47.868;11.892;2023-12-07T04:30:01;21.30;;;12.70;;
5199;SDS011;2619;47.868;11.892;2023-12-07T04:32:28;22.00;;;14.03;;
5199;SDS011;2619;47.868;11.892;2023-12-07T04:34:54;24.30;;;14.03;;
5199;SDS011;2619;47.868;11.892;2023-12-07T04:37:20;19.93;;;12.97;;
5199;SDS011;2619;47.868;11.892;2023-12-07T04:39:46;22.83;;;13.30;;
5199;SDS011;2619;47.868;11.892;2023-12-07T04:42:12;21.60;;;13.27;;
5199;SDS011;2619;47.868;11.892;2023-12-07T04:44:38;20.20;;;11.70;;
5199;SDS011;2619;47.868;11.892;2023-12-07T04:47:04;18.40;;;11.63;;
5199;SDS011;2619;47.868;11.892;2023-12-07T04:49:30;21.63;;;12.77;;
5199;SDS011;2619;47.868;11.892;2023-12-07T04:51:56;16.97;;;11.47;;
5199;SDS011;2619;47.868;11.892;2023-12-07T04:54:22;20.57;;;11.87;;
5199;SDS011;2619;47.868;11.892;2023-12-07T04:56:48;18.97;;;11.30;;
5199;SDS011;2619;47.868;11.892;2023-12-07T04:59:14;17.93;;;11.60;;
5199;SDS011;2619;47.868;11.892;2023-12-07T05:01:40;21.23;;;12.77;;
5199;SDS011;2619;47.868;11.892;2023-12-07T05:04:06;16.47;;;11.20;;
5199;SDS011;2619;47.868;11.892;2023-12-07T05:06:32;17.70;;;11.23;;
5199;SDS011;2619;47.868;11.892;2023-12-07T05:08:58;16.20;;;10.90;;
5199;SDS011;2619;47.868;11.892;2023-12-07T05:11:24;15.80;;;11.20;;
5199;SDS011;2619;47.868;11.892;2023-12-07T05:13:50;18.30;;;12.37;;
5199;SDS011;2619;47.868;11.892;2023-12-07T05:16:16;19.60;;;11.87;;
5199;SDS011;2619;47.868;11.892;2023-12-07T05:18:42;18.90;;;12.60;;
5199;SDS011;2619;47.868;11.892;2023-12-07T05:21:09;18.97;;;11.80;;
5199;SDS011;2619;47.868;11.892;2023-12-07T05:23:35;18.70;;;10.97;;
5199;SDS011;2619;47.868;11.892;2023-12-07T05:26:01;16.37;;;10.00;;
5199;SDS011;2619;47.868;11.892;2023-12-07T05:28:27;17.17;;;11.90;;
5199;SDS011;2619;47.868;11.892;2023-12-07T05:30:53;21.87;;;12.03;;
5199;SDS011;2619;47.868;11.892;2023-12-07T05:33:18;19.30;;;11.00;;
5199;SDS011;2619;47.868;11.892;2023-12-07T05:35:45;20.37;;;13.10;;
5199;SDS011;2619;47.868;11.892;2023-12-07T05:38:11;18.13;;;11.43;;
5199;SDS011;2619;47.868;11.892;2023-12-07T05:40:37;19.40;;;11.13;;
5199;SDS011;2619;47.868;11.892;2023-12-07T05:43:03;20.80;;;12.17;;
5199;SDS011;2619;47.868;11.892;2023-12-07T05:45:29;19.00;;;12.77;;
5199;SDS011;2619;47.868;11.892;2023-12-07T05:47:55;19.70;;;12.23;;
5199;SDS011;2619;47.868;11.892;2023-12-07T05:50:21;20.30;;;11.50;;
5199;SDS011;2619;47.868;11.892;2023-12-07T05:52:47;26.20;;;12.17;;
5199;SDS011;2619;47.868;11.892;2023-12-07T05:55:14;17.20;;;11.80;;
5199;SDS011;2619;47.868;11.892;2023-12-07T05:57:40;16.87;;;10.50;;
5199;SDS011;2619;47.868;11.892;2023-12-07T06:00:06;22.43;;;13.83;;
5199;SDS011;2619;47.868;11.892;2023-12-07T06:02:34;18.13;;;12.30;;
5199;SDS011;2619;47.868;11.892;2023-12-07T06:05:00;20.80;;;12.90;;
5199;SDS011;2619;47.868;11.892;2023-12-07T06:07:28;18.83;;;12.03;;
5199;SDS011;2619;47.868;11.892;2023-12-07T06:09:54;20.70;;;11.17;;
5199;SDS011;2619;47.868;11.892;2023-12-07T06:12:21;20.60;;;11.20;;
5199;SDS011;2619;47.868;11.892;2023-12-07T06:14:47;19.57;;;11.80;;
5199;SDS011;2619;47.868;11.892;2023-12-07T06:17:13;18.70;;;11.10;;
5199;SDS011;2619;47.868;11.892;2023-12-07T06:19:39;18.43;;;11.80;;
5199;SDS011;2619;47.868;11.892;2023-12-07T06:22:05;19.00;;;11.83;;
5199;SDS011;2619;47.868;11.892;2023-12-07T06:24:31;21.50;;;11.80;;
5199;SDS011;2619;47.868;11.892;2023-12-07T06:26:57;19.60;;;11.13;;
5199;SDS011;2619;47.868;11.892;2023-12-07T06:29:24;19.77;;;12.70;;
5199;SDS011;2619;47.868;11.892;2023-12-07T06:31:50;18.97;;;11.30;;
5199;SDS011;2619;47.868;11.892;2023-12-07T06:34:16;20.53;;;10.67;;
5199;SDS011;2619;47.868;11.892;2023-12-07T06:36:42;19.83;;;11.40;;
5199;SDS011;2619;47.868;11.892;2023-12-07T06:39:08;20.77;;;11.50;;
5199;SDS011;2619;47.868;11.892;2023-12-07T06:41:35;19.43;;;11.23;;
5199;SDS011;2619;47.868;11.892;2023-12-07T06:44:01;18.80;;;10.47;;
5199;SDS011;2619;47.868;11.892;2023-12-07T06:46:27;17.43;;;9.60;;
5199;SDS011;2619;47.868;11.892;2023-12-07T06:48:53;17.63;;;10.40;;
5199;SDS011;2619;47.868;11.892;2023-12-07T06:51:19;17.10;;;10.23;;
5199;SDS011;2619;47.868;11.892;2023-12-07T06:53:45;20.60;;;11.20;;
5199;SDS011;2619;47.868;11.892;2023-12-07T06:56:11;16.67;;;9.77;;
5199;SDS011;2619;47.868;11.892;2023-12-07T06:58:37;22.10;;;12.27;;
5199;SDS011;2619;47.868;11.892;2023-12-07T07:01:03;20.60;;;12.50;;
5199;SDS011;2619;47.868;11.892;2023-12-07T07:03:29;18.70;;;10.60;;
5199;SDS011;2619;47.868;11.892;2023-12-07T07:05:55;22.57;;;11.80;;
5199;SDS011;2619;47.868;11.892;2023-12-07T07:08:21;19.33;;;11.20;;
5199;SDS011;2619;47.868;11.892;2023-12-07T07:10:47;22.17;;;12.47;;
5199;SDS011;2619;47.868;11.892;2023-12-07T07:13:13;19.60;;;12.77;;
5199;SDS011;2619;47.868;11.892;2023-12-07T07:15:44;19.67;;;12.70;;
5199;SDS011;2619;47.868;11.892;2023-12-07T07:18:10;18.90;;;11.00;;
5199;SDS011;2619;47.868;11.892;2023-12-07T07:20:36;19.80;;;12.37;;
5199;SDS011;2619;47.868;11.892;2023-12-07T07:23:02;20.23;;;12.97;;
5199;SDS011;2619;47.868;11.892;2023-12-07T07:25:28;22.77;;;13.13;;
5199;SDS011;2619;47.868;11.892;2023-12-07T07:27:55;20.60;;;12.70;;
5199;SDS011;2619;47.868;11.892;2023-12-07T07:30:21;18.47;;;12.00;;
5199;SDS011;2619;47.868;11.892;2023-12-07T07:32:47;19.67;;;12.40;;
5199;SDS011;2619;47.868;11.892;2023-12-07T07:35:13;21.80;;;13.17;;
5199;SDS011;2619;47.868;11.892;2023-12-07T07:37:39;19.77;;;12.67;;
5199;SDS011;2619;47.868;11.892;2023-12-07T07:40:06;23.80;;;13.73;;
5199;SDS011;2619;47.868;11.892;2023-12-07T07:42:32;19.83;;;11.40;;
5199;SDS011;2619;47.868;11.892;2023-12-07T07:44:58;21.77;;;11.40;;
5199;SDS011;2619;47.868;11.892;2023-12-07T07:47:24;17.37;;;10.80;;
5199;SDS011;2619;47.868;11.892;2023-12-07T07:49:50;18.70;;;10.80;;
5199;SDS011;2619;47.868;11.892;2023-12-07T07:52:16;18.27;;;10.70;;
5199;SDS011;2619;47.868;11.892;2023-12-07T07:54:42;19.57;;;12.60;;
5199;SDS011;2619;47.868;11.892;2023-12-07T07:57:08;19.87;;;11.40;;
5199;SDS011;2619;47.868;11.892;2023-12-07T07:59:34;14.93;;;10.60;;
5199;SDS011;2619;47.868;11.892;2023-12-07T08:02:00;18.80;;;11.10;;
5199;SDS011;2619;47.868;11.892;2023-12-07T08:04:26;18.20;;;10.40;;
5199;SDS011;2619;47.868;11.892;2023-12-07T08:06:52;15.77;;;10.57;;
5199;SDS011;2619;47.868;11.892;2023-12-07T08:09:18;17.60;;;11.47;;
5199;SDS011;2619;47.868;11.892;2023-12-07T08:11:44;15.70;;;9.57;;
5199;SDS011;2619;47.868;11.892;2023-12-07T08:14:10;14.97;;;9.87;;
5199;SDS011;2619;47.868;11.892;2023-12-07T08:16:36;21.03;;;13.93;;
5199;SDS011;2619;47.868;11.892;2023-12-07T08:19:02;24.77;;;13.67;;
5199;SDS011;2619;47.868;11.892;2023-12-07T08:21:28;19.87;;;13.27;;
5199;SDS011;2619;47.868;11.892;2023-12-07T08:23:54;18.23;;;12.53;;
5199;SDS011;2619;47.868;11.892;2023-12-07T08:26:21;23.17;;;13.40;;
5199;SDS011;2619;47.868;11.892;2023-12-07T08:28:47;18.80;;;12.07;;
5199;SDS011;2619;47.868;11.892;2023-12-07T08:31:13;14.27;;;9.70;;
5199;SDS011;2619;47.868;11.892;2023-12-07T08:33:39;15.13;;;9.20;;
5199;SDS011;2619;47.868;11.892;2023-12-07T08:36:05;16.80;;;10.73;;
5199;SDS011;2619;47.868;11.892;2023-12-07T08:38:32;22.43;;;12.73;;
5199;SDS011;2619;47.868;11.892;2023-12-07T08:40:58;13.70;;;8.47;;
5199;SDS011;2619;47.868;11.892;2023-12-07T08:43:24;15.23;;;9.20;;
5199;SDS011;2619;47.868;11.892;2023-12-07T08:45:53;16.40;;;10.43;;
5199;SDS011;2619;47.868;11.892;2023-12-07T08:48:19;15.27;;;9.50;;
5199;SDS011;2619;47.868;11.892;2023-12-07T08:50:45;17.07;;;11.40;;
5199;SDS011;2619;47.868;11.892;2023-12-07T08:53:11;14.87;;;9.57;;
5199;SDS011;2619;47.868;11.892;2023-12-07T08:55:37;15.13;;;10.43;;
5199;SDS011;2619;47.868;11.892;2023-12-07T08:58:04;12.43;;;8.73;;
5199;SDS011;2619;47.868;11.892;2023-12-07T09:00:31;13.10;;;9.00;;
5199;SDS011;2619;47.868;11.892;2023-12-07T09:02:57;14.10;;;9.90;;
5199;SDS011;2619;47.868;11.892;2023-12-07T09:05:23;13.90;;;10.17;;
5199;SDS011;2619;47.868;11.892;2023-12-07T09:07:49;15.40;;;10.40;;
5199;SDS011;2619;47.868;11.892;2023-12-07T09:10:15;16.10;;;10.90;;
5199;SDS011;2619;47.868;11.892;2023-12-07T09:12:41;15.50;;;10.27;;
5199;SDS011;2619;47.868;11.892;2023-12-07T09:15:07;15.23;;;10.03;;
5199;SDS011;2619;47.868;11.892;2023-12-07T09:17:34;14.97;;;9.80;;
5199;SDS011;2619;47.868;11.892;2023-12-07T09:20:00;15.67;;;10.50;;
5199;SDS011;2619;47.868;11.892;2023-12-07T09:22:26;15.53;;;10.43;;
5199;SDS011;2619;47.868;11.892;2023-12-07T09:24:52;15.20;;;10.27;;
5199;SDS011;2619;47.868;11.892;2023-12-07T09:27:18;17.90;;;11.97;;
5199;SDS011;2619;47.868;11.892;2023-12-07T09:29:44;15.60;;;10.87;;
5199;SDS011;2619;47.868;11.892;2023-12-07T09:32:10;15.63;;;11.00;;
5199;SDS011;2619;47.868;11.892;2023-12-07T09:34:36;18.00;;;11.10;;
5199;SDS011;2619;47.868;11.892;2023-12-07T09:37:08;14.00;;;9.83;;
5199;SDS011;2619;47.868;11.892;2023-12-07T09:39:34;14.73;;;10.13;;
5199;SDS011;2619;47.868;11.892;2023-12-07T09:42:00;16.37;;;10.40;;
5199;SDS011;2619;47.868;11.892;2023-12-07T09:44:26;16.40;;;9.40;;
5199;SDS011;2619;47.868;11.892;2023-12-07T09:46:52;15.07;;;10.00;;
5199;SDS011;2619;47.868;11.892;2023-12-07T09:49:19;19.00;;;8.87;;
5199;SDS011;2619;47.868;11.892;2023-12-07T09:51:45;15.87;;;9.73;;
5199;SDS011;2619;47.868;11.892;2023-12-07T09:54:12;15.73;;;9.63;;
5199;SDS011;2619;47.868;11.892;2023-12-07T09:56:38;14.03;;;9.50;;
5199;SDS011;2619;47.868;11.892;2023-12-07T09:59:04;12.50;;;9.07;;
5199;SDS011;2619;47.868;11.892;2023-12-07T10:01:30;11.57;;;7.57;;
5199;SDS011;2619;47.868;11.892;2023-12-07T10:06:42;10.57;;;6.43;;
5199;SDS011;2619;47.868;11.892;2023-12-07T10:09:13;11.27;;;7.63;;
5199;SDS011;2619;47.868;11.892;2023-12-07T10:11:39;10.43;;;7.87;;
5199;SDS011;2619;47.868;11.892;2023-12-07T10:14:06;10.07;;;7.73;;
5199;SDS011;2619;47.868;11.892;2023-12-07T10:16:35;13.83;;;8.70;;
5199;SDS011;2619;47.868;11.892;2023-12-07T10:19:14;15.20;;;9.90;;
5199;SDS011;2619;47.868;11.892;2023-12-07T10:21:42;14.00;;;8.60;;
5199;SDS011;2619;47.868;11.892;2023-12-07T10:24:09;13.63;;;8.40;;
5199;SDS011;2619;47.868;11.892;2023-12-07T10:26:36;10.27;;;7.97;;
5199;SDS011;2619;47.868;11.892;2023-12-07T10:29:07;13.60;;;8.90;;
5199;SDS011;2619;47.868;11.892;2023-12-07T10:31:33;12.90;;;8.70;;
5199;SDS011;2619;47.868;11.892;2023-12-07T10:33:59;10.80;;;8.10;;
5199;SDS011;2619;47.868;11.892;2023-12-07T10:36:26;12.40;;;7.60;;
5199;SDS011;2619;47.868;11.892;2023-12-07T10:38:52;11.60;;;7.50;;
5199;SDS011;2619;47.868;11.892;2023-12-07T10:41:21;10.87;;;7.53;;
5199;SDS011;2619;47.868;11.892;2023-12-07T10:43:49;10.10;;;7.83;;
5199;SDS011;2619;47.868;11.892;2023-12-07T10:46:15;11.23;;;8.50;;
5199;SDS011;2619;47.868;11.892;2023-12-07T10:48:41;9.90;;;7.13;;
5199;SDS011;2619;47.868;11.892;2023-12-07T10:51:09;9.80;;;6.93;;
5199;SDS011;2619;47.868;11.892;2023-12-07T10:53:42;11.67;;;7.00;;
5199;SDS011;2619;47.868;11.892;2023-12-07T10:56:10;11.40;;;7.77;;
5199;SDS011;2619;47.868;11.892;2023-12-07T10:58:36;11.17;;;7.37;;
5199;SDS011;2619;47.868;11.892;2023-12-07T11:01:03;10.90;;;7.70;;
5199;SDS011;2619;47.868;11.892;2023-12-07T11:03:29;9.67;;;7.50;;
5199;SDS011;2619;47.868;11.892;2023-12-07T11:05:56;8.67;;;6.90;;
5199;SDS011;2619;47.868;11.892;2023-12-07T11:08:27;9.07;;;6.77;;
5199;SDS011;2619;47.868;11.892;2023-12-07T11:13:23;10.17;;;6.70;;
5199;SDS011;2619;47.868;11.892;2023-12-07T11:15:49;10.57;;;6.73;;
5199;SDS011;2619;47.868;11.892;2023-12-07T11:18:15;16.53;;;7.87;;
5199;SDS011;2619;47.868;11.892;2023-12-07T11:20:42;9.33;;;6.60;;
5199;SDS011;2619;47.868;11.892;2023-12-07T11:23:15;11.50;;;8.53;;
5199;SDS011;2619;47.868;11.892;2023-12-07T11:25:43;9.60;;;7.57;;
5199;SDS011;2619;47.868;11.892;2023-12-07T11:28:10;11.53;;;6.80;;
5199;SDS011;2619;47.868;11.892;2023-12-07T11:30:37;9.00;;;6.77;;
5199;SDS011;2619;47.868;11.892;2023-12-07T11:33:05;11.30;;;7.80;;
5199;SDS011;2619;47.868;11.892;2023-12-07T11:35:31;9.27;;;7.30;;
5199;SDS011;2619;47.868;11.892;2023-12-07T11:38:07;12.23;;;8.47;;
5199;SDS011;2619;47.868;11.892;2023-12-07T11:40:35;13.70;;;8.60;;
5199;SDS011;2619;47.868;11.892;2023-12-07T11:43:01;10.53;;;7.93;;
5199;SDS011;2619;47.868;11.892;2023-12-07T11:45:42;11.40;;;7.30;;
5199;SDS011;2619;47.868;11.892;2023-12-07T11:48:13;12.30;;;8.00;;
5199;SDS011;2619;47.868;11.892;2023-12-07T11:50:53;12.57;;;9.20;;
5199;SDS011;2619;47.868;11.892;2023-12-07T11:53:23;12.60;;;8.53;;
5199;SDS011;2619;47.868;11.892;2023-12-07T11:55:49;14.60;;;9.27;;
5199;SDS011;2619;47.868;11.892;2023-12-07T11:58:15;13.63;;;9.80;;
5199;SDS011;2619;47.868;11.892;2023-12-07T12:00:41;12.70;;;9.07;;
5199;SDS011;2619;47.868;11.892;2023-12-07T12:03:08;12.80;;;10.27;;
5199;SDS011;2619;47.868;11.892;2023-12-07T12:05:34;12.43;;;8.23;;
5199;SDS011;2619;47.868;11.892;2023-12-07T12:08:00;14.23;;;9.70;;
5199;SDS011;2619;47.868;11.892;2023-12-07T12:10:26;11.37;;;8.30;;
5199;SDS011;2619;47.868;11.892;2023-12-07T12:12:53;13.10;;;9.23;;
5199;SDS011;2619;47.868;11.892;2023-12-07T12:15:19;13.40;;;9.60;;
5199;SDS011;2619;47.868;11.892;2023-12-07T12:17:45;11.80;;;9.27;;
5199;SDS011;2619;47.868;11.892;2023-12-07T12:20:13;12.70;;;9.10;;
5199;SDS011;2619;47.868;11.892;2023-12-07T12:22:43;14.77;;;8.97;;
5199;SDS011;2619;47.868;11.892;2023-12-07T12:25:09;13.47;;;8.87;;
5199;SDS011;2619;47.868;11.892;2023-12-07T12:27:35;11.30;;;9.00;;
5199;SDS011;2619;47.868;11.892;2023-12-07T12:30:01;11.40;;;7.90;;
5199;SDS011;2619;47.868;11.892;2023-12-07T12:32:28;12.17;;;7.90;;
5199;SDS011;2619;47.868;11.892;2023-12-07T12:34:58;11.43;;;8.10;;
5199;SDS011;2619;47.868;11.892;2023-12-07T12:37:24;12.67;;;8.10;;
5199;SDS011;2619;47.868;11.892;2023-12-07T12:39:50;9.93;;;7.10;;
5199;SDS011;2619;47.868;11.892;2023-12-07T12:42:17;9.60;;;7.13;;
5199;SDS011;2619;47.868;11.892;2023-12-07T12:44:43;11.07;;;7.63;;
5199;SDS011;2619;47.868;11.892;2023-12-07T12:47:09;8.53;;;6.60;;
5199;SDS011;2619;47.868;11.892;2023-12-07T12:49:36;8.13;;;5.87;;
5199;SDS011;2619;47.868;11.892;2023-12-07T12:52:02;9.40;;;5.90;;
5199;SDS011;2619;47.868;11.892;2023-12-07T12:54:32;9.10;;;5.27;;
5199;SDS011;2619;47.868;11.892;2023-12-07T12:56:58;8.13;;;6.03;;
5199;SDS011;2619;47.868;11.892;2023-12-07T12:59:24;7.90;;;5.50;;
5199;SDS011;2619;47.868;11.892;2023-12-07T13:01:50;8.47;;;5.60;;
5199;SDS011;2619;47.868;11.892;2023-12-07T13:04:16;8.67;;;5.17;;
5199;SDS011;2619;47.868;11.892;2023-12-07T13:06:42;10.17;;;6.20;;
5199;SDS011;2619;47.868;11.892;2023-12-07T13:09:08;7.87;;;5.47;;
5199;SDS011;2619;47.868;11.892;2023-12-07T13:11:34;8.03;;;5.50;;
5199;SDS011;2619;47.868;11.892;2023-12-07T13:14:00;8.47;;;4.93;;
5199;SDS011;2619;47.868;11.892;2023-12-07T13:16:31;8.00;;;5.23;;
5199;SDS011;2619;47.868;11.892;2023-12-07T13:18:57;10.10;;;6.60;;
5199;SDS011;2619;47.868;11.892;2023-12-07T13:21:23;9.40;;;6.43;;
5199;SDS011;2619;47.868;11.892;2023-12-07T13:23:49;9.00;;;6.90;;
5199;SDS011;2619;47.868;11.892;2023-12-07T13:26:16;8.90;;;6.97;;
5199;SDS011;2619;47.868;11.892;2023-12-07T13:28:42;10.47;;;7.73;;
5199;SDS011;2619;47.868;11.892;2023-12-07T13:31:08;11.73;;;7.37;;
5199;SDS011;2619;47.868;11.892;2023-12-07T13:33:33;11.90;;;8.27;;
5199;SDS011;2619;47.868;11.892;2023-12-07T13:35:59;12.80;;;8.20;;
5199;SDS011;2619;47.868;11.892;2023-12-07T13:38:26;15.00;;;8.80;;
5199;SDS011;2619;47.868;11.892;2023-12-07T13:40:55;11.77;;;7.80;;
5199;SDS011;2619;47.868;11.892;2023-12-07T13:43:21;10.23;;;7.80;;
5199;SDS011;2619;47.868;11.892;2023-12-07T13:45:49;13.17;;;8.23;;
5199;SDS011;2619;47.868;11.892;2023-12-07T13:48:15;10.00;;;7.17;;
5199;SDS011;2619;47.868;11.892;2023-12-07T13:50:42;11.70;;;7.93;;
5199;SDS011;2619;47.868;11.892;2023-12-07T13:53:08;11.53;;;7.93;;
5199;SDS011;2619;47.868;11.892;2023-12-07T13:55:35;11.13;;;7.40;;
5199;SDS011;2619;47.868;11.892;2023-12-07T13:58:02;10.57;;;7.67;;
5199;SDS011;2619;47.868;11.892;2023-12-07T14:00:28;11.50;;;7.73;;
5199;SDS011;2619;47.868;11.892;2023-12-07T14:02:54;10.70;;;7.53;;
5199;SDS011;2619;47.868;11.892;2023-12-07T14:05:20;10.83;;;7.30;;
5199;SDS011;2619;47.868;11.892;2023-12-07T14:07:46;10.03;;;7.17;;
5199;SDS011;2619;47.868;11.892;2023-12-07T14:10:12;12.80;;;7.90;;
5199;SDS011;2619;47.868;11.892;2023-12-07T14:12:38;11.60;;;7.13;;
5199;SDS011;2619;47.868;11.892;2023-12-07T14:15:04;22.97;;;7.10;;
5199;SDS011;2619;47.868;11.892;2023-12-07T14:17:30;13.87;;;7.87;;
5199;SDS011;2619;47.868;11.892;2023-12-07T14:20:02;10.33;;;6.53;;
5199;SDS011;2619;47.868;11.892;2023-12-07T14:22:28;14.47;;;9.80;;
5199;SDS011;2619;47.868;11.892;2023-12-07T14:24:54;15.17;;;10.30;;
5199;SDS011;2619;47.868;11.892;2023-12-07T14:27:20;15.93;;;10.90;;
5199;SDS011;2619;47.868;11.892;2023-12-07T14:29:46;16.60;;;11.90;;
5199;SDS011;2619;47.868;11.892;2023-12-07T14:32:12;19.63;;;12.93;;
5199;SDS011;2619;47.868;11.892;2023-12-07T14:34:38;21.70;;;14.23;;
5199;SDS011;2619;47.868;11.892;2023-12-07T14:37:04;14.90;;;10.77;;
5199;SDS011;2619;47.868;11.892;2023-12-07T14:39:30;19.90;;;11.40;;
5199;SDS011;2619;47.868;11.892;2023-12-07T14:41:56;15.70;;;11.00;;
5199;SDS011;2619;47.868;11.892;2023-12-07T14:44:23;16.93;;;10.70;;